sensor_id;sensor_type;location;lat;lon;timestamp;P1;durP1;ratioP1;P2;durP2;ratioP2
37001;SDS011;22913;51.910;8.374;2022-11-20T00:00:18;18.63;;;12.63;;
37001;SDS011;22913;51.910;8.374;2022-11-20T00:03:04;17.27;;;11.30;;
37001;SDS011;22913;51.910;8.374;2022-11-20T00:05:49;16.90;;;11.37;;
37001;SDS011;22913;51.910;8.374;2022-11-20T00:08:35;15.10;;;10.60;;
37001;SDS011;22913;51.910;8.374;2022-11-20T00:11:22;14.47;;;10.57;;
37001;SDS011;22913;51.910;8.374;2022-11-20T00:14:08;14.23;;;10.70;;
37001;SDS011;22913;51.910;8.374;2022-11-20T00:16:56;13.97;;;9.73;;
37001;SDS011;22913;51.910;8.374;2022-11-20T00:19:41;18.27;;;10.40;;
37001;SDS011;22913;51.910;8.374;2022-11-20T00:22:26;14.87;;;10.93;;
37001;SDS011;22913;51.910;8.374;2022-11-20T00:25:12;16.83;;;11.27;;
37001;SDS011;22913;51.910;8.374;2022-11-20T00:27:57;17.87;;;11.50;;
37001;SDS011;22913;51.910;8.374;2022-11-20T00:30:43;12.47;;;10.07;;
37001;SDS011;22913;51.910;8.374;2022-11-20T00:33:30;14.93;;;10.93;;
37001;SDS011;22913;51.910;8.374;2022-11-20T00:36:16;17.13;;;10.73;;
37001;SDS011;22913;51.910;8.374;2022-11-20T00:39:03;13.97;;;10.67;;
37001;SDS011;22913;51.910;8.374;2022-11-20T00:41:48;16.17;;;11.77;;
37001;SDS011;22913;51.910;8.374;2022-11-20T00:44:34;13.67;;;10.80;;
37001;SDS011;22913;51.910;8.374;2022-11-20T00:47:19;13.40;;;10.13;;
37001;SDS011;22913;51.910;8.374;2022-11-20T00:50:07;13.67;;;10.37;;
37001;SDS011;22913;51.910;8.374;2022-11-20T00:52:53;12.63;;;10.33;;
37001;SDS011;22913;51.910;8.374;2022-11-20T00:55:39;11.63;;;9.70;;
37001;SDS011;22913;51.910;8.374;2022-11-20T00:58:24;14.57;;;10.53;;
37001;SDS011;22913;51.910;8.374;2022-11-20T01:01:14;12.93;;;10.30;;
37001;SDS011;22913;51.910;8.374;2022-11-20T01:04:00;12.80;;;10.00;;
37001;SDS011;22913;51.910;8.374;2022-11-20T01:06:47;15.37;;;10.63;;
37001;SDS011;22913;51.910;8.374;2022-11-20T01:09:33;13.87;;;10.10;;
37001;SDS011;22913;51.910;8.374;2022-11-20T01:12:18;13.90;;;11.00;;
37001;SDS011;22913;51.910;8.374;2022-11-20T01:15:04;15.73;;;11.00;;
37001;SDS011;22913;51.910;8.374;2022-11-20T01:17:50;18.53;;;12.67;;
37001;SDS011;22913;51.910;8.374;2022-11-20T01:20:36;15.67;;;10.97;;
37001;SDS011;22913;51.910;8.374;2022-11-20T01:23:23;15.97;;;12.17;;
37001;SDS011;22913;51.910;8.374;2022-11-20T01:26:09;16.10;;;12.50;;
37001;SDS011;22913;51.910;8.374;2022-11-20T01:28:56;16.77;;;11.87;;
37001;SDS011;22913;51.910;8.374;2022-11-20T01:31:43;17.73;;;12.30;;
37001;SDS011;22913;51.910;8.374;2022-11-20T01:34:29;20.07;;;13.00;;
37001;SDS011;22913;51.910;8.374;2022-11-20T01:37:14;19.27;;;13.70;;
37001;SDS011;22913;51.910;8.374;2022-11-20T01:40:02;20.80;;;14.03;;
37001;SDS011;22913;51.910;8.374;2022-11-20T01:42:52;19.40;;;12.97;;
37001;SDS011;22913;51.910;8.374;2022-11-20T01:46:14;19.30;;;12.77;;
37001;SDS011;22913;51.910;8.374;2022-11-20T01:49:00;15.70;;;12.10;;
37001;SDS011;22913;51.910;8.374;2022-11-20T01:51:49;20.60;;;13.50;;
37001;SDS011;22913;51.910;8.374;2022-11-20T01:54:38;18.67;;;12.20;;
37001;SDS011;22913;51.910;8.374;2022-11-20T01:57:28;18.00;;;12.77;;
37001;SDS011;22913;51.910;8.374;2022-11-20T02:00:17;13.33;;;11.00;;
37001;SDS011;22913;51.910;8.374;2022-11-20T02:03:05;16.33;;;10.80;;
37001;SDS011;22913;51.910;8.374;2022-11-20T02:05:55;14.47;;;11.03;;
37001;SDS011;22913;51.910;8.374;2022-11-20T02:08:44;16.20;;;10.77;;
37001;SDS011;22913;51.910;8.374;2022-11-20T02:11:30;15.57;;;10.73;;
37001;SDS011;22913;51.910;8.374;2022-11-20T02:14:18;15.37;;;11.10;;
37001;SDS011;22913;51.910;8.374;2022-11-20T02:17:03;15.07;;;10.50;;
37001;SDS011;22913;51.910;8.374;2022-11-20T02:19:49;15.53;;;11.57;;
37001;SDS011;22913;51.910;8.374;2022-11-20T02:22:35;16.37;;;11.20;;
37001;SDS011;22913;51.910;8.374;2022-11-20T02:25:30;15.73;;;12.43;;
37001;SDS011;22913;51.910;8.374;2022-11-20T02:28:20;13.00;;;10.70;;
37001;SDS011;22913;51.910;8.374;2022-11-20T02:31:06;16.50;;;11.13;;
37001;SDS011;22913;51.910;8.374;2022-11-20T02:33:54;16.20;;;10.63;;
37001;SDS011;22913;51.910;8.374;2022-11-20T02:36:40;16.40;;;10.90;;
37001;SDS011;22913;51.910;8.374;2022-11-20T02:39:27;15.43;;;10.73;;
37001;SDS011;22913;51.910;8.374;2022-11-20T02:42:15;13.40;;;10.17;;
37001;SDS011;22913;51.910;8.374;2022-11-20T02:45:01;15.03;;;9.40;;
37001;SDS011;22913;51.910;8.374;2022-11-20T02:47:46;14.03;;;10.03;;
37001;SDS011;22913;51.910;8.374;2022-11-20T02:50:32;10.60;;;9.00;;
37001;SDS011;22913;51.910;8.374;2022-11-20T02:53:18;12.93;;;9.13;;
37001;SDS011;22913;51.910;8.374;2022-11-20T02:56:04;12.57;;;9.07;;
37001;SDS011;22913;51.910;8.374;2022-11-20T02:58:52;12.70;;;8.73;;
37001;SDS011;22913;51.910;8.374;2022-11-20T03:01:38;13.03;;;9.47;;
37001;SDS011;22913;51.910;8.374;2022-11-20T03:04:24;11.73;;;9.17;;
37001;SDS011;22913;51.910;8.374;2022-11-20T03:07:10;11.63;;;8.30;;
37001;SDS011;22913;51.910;8.374;2022-11-20T03:09:56;12.33;;;8.20;;
37001;SDS011;22913;51.910;8.374;2022-11-20T03:12:42;11.70;;;8.97;;
37001;SDS011;22913;51.910;8.374;2022-11-20T03:15:29;7.23;;;5.83;;
37001;SDS011;22913;51.910;8.374;2022-11-20T03:18:15;9.80;;;8.10;;
37001;SDS011;22913;51.910;8.374;2022-11-20T03:21:01;10.33;;;8.30;;
37001;SDS011;22913;51.910;8.374;2022-11-20T03:23:47;11.00;;;8.80;;
37001;SDS011;22913;51.910;8.374;2022-11-20T03:26:33;14.20;;;9.20;;
37001;SDS011;22913;51.910;8.374;2022-11-20T03:29:19;13.70;;;9.10;;
37001;SDS011;22913;51.910;8.374;2022-11-20T03:32:06;10.87;;;7.87;;
37001;SDS011;22913;51.910;8.374;2022-11-20T03:34:52;10.63;;;7.93;;
37001;SDS011;22913;51.910;8.374;2022-11-20T03:37:37;11.90;;;8.80;;
37001;SDS011;22913;51.910;8.374;2022-11-20T03:40:23;10.97;;;8.13;;
37001;SDS011;22913;51.910;8.374;2022-11-20T03:43:09;11.07;;;8.30;;
37001;SDS011;22913;51.910;8.374;2022-11-20T03:45:55;9.67;;;8.00;;
37001;SDS011;22913;51.910;8.374;2022-11-20T03:48:43;12.43;;;8.90;;
37001;SDS011;22913;51.910;8.374;2022-11-20T03:51:29;10.20;;;8.10;;
37001;SDS011;22913;51.910;8.374;2022-11-20T03:54:15;10.23;;;7.93;;
37001;SDS011;22913;51.910;8.374;2022-11-20T03:57:01;10.23;;;7.93;;
37001;SDS011;22913;51.910;8.374;2022-11-20T03:59:47;12.57;;;8.43;;
37001;SDS011;22913;51.910;8.374;2022-11-20T04:02:33;13.33;;;9.23;;
37001;SDS011;22913;51.910;8.374;2022-11-20T04:05:20;13.43;;;8.83;;
37001;SDS011;22913;51.910;8.374;2022-11-20T04:08:06;11.60;;;8.90;;
37001;SDS011;22913;51.910;8.374;2022-11-20T04:10:51;12.47;;;7.93;;
37001;SDS011;22913;51.910;8.374;2022-11-20T04:13:37;11.67;;;8.17;;
37001;SDS011;22913;51.910;8.374;2022-11-20T04:16:24;13.67;;;7.93;;
37001;SDS011;22913;51.910;8.374;2022-11-20T04:19:10;13.07;;;8.63;;
37001;SDS011;22913;51.910;8.374;2022-11-20T04:21:59;10.50;;;8.50;;
37001;SDS011;22913;51.910;8.374;2022-11-20T04:24:46;13.90;;;8.73;;
37001;SDS011;22913;51.910;8.374;2022-11-20T04:27:32;15.23;;;8.13;;
37001;SDS011;22913;51.910;8.374;2022-11-20T04:30:18;13.07;;;8.03;;
37001;SDS011;22913;51.910;8.374;2022-11-20T04:33:03;11.37;;;7.40;;
37001;SDS011;22913;51.910;8.374;2022-11-20T04:35:49;11.17;;;8.37;;
37001;SDS011;22913;51.910;8.374;2022-11-20T04:38:36;11.80;;;7.80;;
37001;SDS011;22913;51.910;8.374;2022-11-20T04:41:23;11.17;;;8.33;;
37001;SDS011;22913;51.910;8.374;2022-11-20T04:44:10;12.13;;;8.43;;
37001;SDS011;22913;51.910;8.374;2022-11-20T04:46:56;10.17;;;7.83;;
37001;SDS011;22913;51.910;8.374;2022-11-20T04:49:42;9.83;;;7.03;;
37001;SDS011;22913;51.910;8.374;2022-11-20T04:52:27;11.67;;;7.87;;
37001;SDS011;22913;51.910;8.374;2022-11-20T04:55:14;10.10;;;7.60;;
37001;SDS011;22913;51.910;8.374;2022-11-20T04:58:00;9.63;;;7.83;;
37001;SDS011;22913;51.910;8.374;2022-11-20T05:00:45;8.37;;;7.23;;
37001;SDS011;22913;51.910;8.374;2022-11-20T05:03:31;8.53;;;6.80;;
37001;SDS011;22913;51.910;8.374;2022-11-20T05:06:17;9.87;;;7.70;;
37001;SDS011;22913;51.910;8.374;2022-11-20T05:09:04;9.27;;;6.93;;
37001;SDS011;22913;51.910;8.374;2022-11-20T05:11:51;10.50;;;8.00;;
37001;SDS011;22913;51.910;8.374;2022-11-20T05:14:37;8.77;;;7.03;;
37001;SDS011;22913;51.910;8.374;2022-11-20T05:17:23;11.33;;;7.83;;
37001;SDS011;22913;51.910;8.374;2022-11-20T05:20:09;12.93;;;8.00;;
37001;SDS011;22913;51.910;8.374;2022-11-20T05:22:56;10.63;;;7.43;;
37001;SDS011;22913;51.910;8.374;2022-11-20T05:25:41;11.47;;;7.50;;
37001;SDS011;22913;51.910;8.374;2022-11-20T05:28:29;11.13;;;6.60;;
37001;SDS011;22913;51.910;8.374;2022-11-20T05:31:16;10.03;;;7.20;;
37001;SDS011;22913;51.910;8.374;2022-11-20T05:34:03;9.40;;;7.60;;
37001;SDS011;22913;51.910;8.374;2022-11-20T05:36:48;9.17;;;6.83;;
37001;SDS011;22913;51.910;8.374;2022-11-20T05:39:34;9.37;;;7.53;;
37001;SDS011;22913;51.910;8.374;2022-11-20T05:42:19;9.30;;;7.20;;
37001;SDS011;22913;51.910;8.374;2022-11-20T05:45:18;12.47;;;7.67;;
37001;SDS011;22913;51.910;8.374;2022-11-20T05:48:03;9.77;;;6.73;;
37001;SDS011;22913;51.910;8.374;2022-11-20T05:50:49;10.20;;;7.17;;
37001;SDS011;22913;51.910;8.374;2022-11-20T05:53:35;6.83;;;6.10;;
37001;SDS011;22913;51.910;8.374;2022-11-20T05:56:21;9.70;;;6.90;;
37001;SDS011;22913;51.910;8.374;2022-11-20T05:59:07;9.83;;;7.63;;
37001;SDS011;22913;51.910;8.374;2022-11-20T06:01:53;8.73;;;6.73;;
37001;SDS011;22913;51.910;8.374;2022-11-20T06:04:39;10.00;;;7.40;;
37001;SDS011;22913;51.910;8.374;2022-11-20T06:07:24;9.17;;;6.80;;
37001;SDS011;22913;51.910;8.374;2022-11-20T06:10:10;9.43;;;6.43;;
37001;SDS011;22913;51.910;8.374;2022-11-20T06:12:57;8.63;;;6.47;;
37001;SDS011;22913;51.910;8.374;2022-11-20T06:15:47;8.33;;;6.97;;
37001;SDS011;22913;51.910;8.374;2022-11-20T06:18:35;8.63;;;6.97;;
37001;SDS011;22913;51.910;8.374;2022-11-20T06:21:22;9.50;;;7.07;;
37001;SDS011;22913;51.910;8.374;2022-11-20T06:24:08;8.87;;;6.60;;
37001;SDS011;22913;51.910;8.374;2022-11-20T06:26:54;12.00;;;6.87;;
37001;SDS011;22913;51.910;8.374;2022-11-20T06:29:39;8.63;;;7.53;;
37001;SDS011;22913;51.910;8.374;2022-11-20T06:32:25;10.90;;;7.83;;
37001;SDS011;22913;51.910;8.374;2022-11-20T06:35:12;8.43;;;7.00;;
37001;SDS011;22913;51.910;8.374;2022-11-20T06:37:57;7.83;;;6.87;;
37001;SDS011;22913;51.910;8.374;2022-11-20T06:40:43;9.47;;;6.70;;
37001;SDS011;22913;51.910;8.374;2022-11-20T06:43:28;9.67;;;7.20;;
37001;SDS011;22913;51.910;8.374;2022-11-20T06:46:14;10.33;;;7.90;;
37001;SDS011;22913;51.910;8.374;2022-11-20T06:49:01;10.00;;;7.60;;
37001;SDS011;22913;51.910;8.374;2022-11-20T06:51:48;9.80;;;7.20;;
37001;SDS011;22913;51.910;8.374;2022-11-20T06:54:33;9.07;;;7.03;;
37001;SDS011;22913;51.910;8.374;2022-11-20T06:57:19;11.50;;;8.17;;
37001;SDS011;22913;51.910;8.374;2022-11-20T07:00:05;8.57;;;7.33;;
37001;SDS011;22913;51.910;8.374;2022-11-20T07:02:51;8.00;;;6.60;;
37001;SDS011;22913;51.910;8.374;2022-11-20T07:05:37;11.10;;;7.50;;
37001;SDS011;22913;51.910;8.374;2022-11-20T07:08:24;7.83;;;6.80;;
37001;SDS011;22913;51.910;8.374;2022-11-20T07:11:11;10.07;;;6.93;;
37001;SDS011;22913;51.910;8.374;2022-11-20T07:13:57;8.00;;;7.00;;
37001;SDS011;22913;51.910;8.374;2022-11-20T07:16:42;8.63;;;6.77;;
37001;SDS011;22913;51.910;8.374;2022-11-20T07:19:28;8.93;;;7.60;;
37001;SDS011;22913;51.910;8.374;2022-11-20T07:22:14;8.17;;;6.80;;
37001;SDS011;22913;51.910;8.374;2022-11-20T07:25:01;8.37;;;6.77;;
37001;SDS011;22913;51.910;8.374;2022-11-20T07:27:47;10.83;;;7.77;;
37001;SDS011;22913;51.910;8.374;2022-11-20T07:30:33;13.67;;;9.33;;
37001;SDS011;22913;51.910;8.374;2022-11-20T07:33:19;11.77;;;9.60;;
37001;SDS011;22913;51.910;8.374;2022-11-20T07:36:05;9.47;;;8.00;;
37001;SDS011;22913;51.910;8.374;2022-11-20T07:38:51;9.73;;;6.67;;
37001;SDS011;22913;51.910;8.374;2022-11-20T07:41:39;9.67;;;7.13;;
37001;SDS011;22913;51.910;8.374;2022-11-20T07:44:25;11.40;;;8.33;;
37001;SDS011;22913;51.910;8.374;2022-11-20T07:47:11;9.77;;;7.67;;
37001;SDS011;22913;51.910;8.374;2022-11-20T07:49:57;13.17;;;7.17;;
37001;SDS011;22913;51.910;8.374;2022-11-20T07:52:43;9.17;;;6.80;;
37001;SDS011;22913;51.910;8.374;2022-11-20T07:55:28;9.73;;;7.47;;
37001;SDS011;22913;51.910;8.374;2022-11-20T07:58:16;8.73;;;7.77;;
37001;SDS011;22913;51.910;8.374;2022-11-20T08:01:05;7.67;;;6.73;;
37001;SDS011;22913;51.910;8.374;2022-11-20T08:03:51;9.53;;;6.73;;
37001;SDS011;22913;51.910;8.374;2022-11-20T08:06:37;6.90;;;6.00;;
37001;SDS011;22913;51.910;8.374;2022-11-20T08:09:23;9.03;;;7.13;;
37001;SDS011;22913;51.910;8.374;2022-11-20T08:12:09;8.83;;;6.70;;
37001;SDS011;22913;51.910;8.374;2022-11-20T08:15:22;8.73;;;6.70;;
37001;SDS011;22913;51.910;8.374;2022-11-20T08:18:08;8.80;;;6.90;;
37001;SDS011;22913;51.910;8.374;2022-11-20T08:20:55;8.83;;;7.10;;
37001;SDS011;22913;51.910;8.374;2022-11-20T08:23:41;10.10;;;6.53;;
37001;SDS011;22913;51.910;8.374;2022-11-20T08:26:26;8.97;;;7.07;;
37001;SDS011;22913;51.910;8.374;2022-11-20T08:29:12;9.40;;;7.63;;
37001;SDS011;22913;51.910;8.374;2022-11-20T08:31:59;8.73;;;7.27;;
37001;SDS011;22913;51.910;8.374;2022-11-20T08:34:44;7.87;;;6.83;;
37001;SDS011;22913;51.910;8.374;2022-11-20T08:37:30;7.83;;;6.67;;
37001;SDS011;22913;51.910;8.374;2022-11-20T08:40:15;9.77;;;7.47;;
37001;SDS011;22913;51.910;8.374;2022-11-20T08:43:01;7.77;;;6.77;;
37001;SDS011;22913;51.910;8.374;2022-11-20T08:45:46;8.13;;;7.03;;
37001;SDS011;22913;51.910;8.374;2022-11-20T08:48:33;9.07;;;7.50;;
37001;SDS011;22913;51.910;8.374;2022-11-20T08:51:19;10.37;;;7.17;;
37001;SDS011;22913;51.910;8.374;2022-11-20T08:54:05;10.37;;;7.13;;
37001;SDS011;22913;51.910;8.374;2022-11-20T08:56:51;8.27;;;6.93;;
37001;SDS011;22913;51.910;8.374;2022-11-20T08:59:36;7.70;;;6.90;;
37001;SDS011;22913;51.910;8.374;2022-11-20T09:02:21;7.37;;;6.47;;
37001;SDS011;22913;51.910;8.374;2022-11-20T09:05:08;10.83;;;7.70;;
37001;SDS011;22913;51.910;8.374;2022-11-20T09:07:55;8.40;;;7.47;;
37001;SDS011;22913;51.910;8.374;2022-11-20T09:10:41;8.23;;;7.03;;
37001;SDS011;22913;51.910;8.374;2022-11-20T09:13:27;9.70;;;7.67;;
37001;SDS011;22913;51.910;8.374;2022-11-20T09:16:13;8.37;;;7.40;;
37001;SDS011;22913;51.910;8.374;2022-11-20T09:18:58;8.80;;;7.30;;
37001;SDS011;22913;51.910;8.374;2022-11-20T09:21:45;10.93;;;7.80;;
37001;SDS011;22913;51.910;8.374;2022-11-20T09:24:30;9.87;;;7.90;;
37001;SDS011;22913;51.910;8.374;2022-11-20T09:27:16;11.73;;;7.67;;
37001;SDS011;22913;51.910;8.374;2022-11-20T09:30:05;10.20;;;8.87;;
37001;SDS011;22913;51.910;8.374;2022-11-20T09:32:52;9.67;;;8.67;;
37001;SDS011;22913;51.910;8.374;2022-11-20T09:35:37;10.83;;;8.77;;
37001;SDS011;22913;51.910;8.374;2022-11-20T09:38:24;11.13;;;8.73;;
37001;SDS011;22913;51.910;8.374;2022-11-20T09:41:13;10.90;;;8.93;;
37001;SDS011;22913;51.910;8.374;2022-11-20T09:44:19;11.17;;;8.60;;
37001;SDS011;22913;51.910;8.374;2022-11-20T09:47:16;10.73;;;8.90;;
37001;SDS011;22913;51.910;8.374;2022-11-20T09:50:17;10.53;;;8.83;;
37001;SDS011;22913;51.910;8.374;2022-11-20T09:53:12;10.63;;;8.23;;
37001;SDS011;22913;51.910;8.374;2022-11-20T09:56:02;9.43;;;8.23;;
37001;SDS011;22913;51.910;8.374;2022-11-20T09:58:50;8.90;;;7.83;;
37001;SDS011;22913;51.910;8.374;2022-11-20T10:01:36;10.30;;;8.27;;
37001;SDS011;22913;51.910;8.374;2022-11-20T10:04:24;9.87;;;8.30;;
37001;SDS011;22913;51.910;8.374;2022-11-20T10:07:11;10.53;;;9.17;;
37001;SDS011;22913;51.910;8.374;2022-11-20T10:10:01;12.00;;;8.67;;
37001;SDS011;22913;51.910;8.374;2022-11-20T10:12:52;12.23;;;7.73;;
37001;SDS011;22913;51.910;8.374;2022-11-20T10:15:51;8.80;;;7.90;;
37001;SDS011;22913;51.910;8.374;2022-11-20T10:18:45;8.50;;;7.60;;
37001;SDS011;22913;51.910;8.374;2022-11-20T10:21:41;11.20;;;8.03;;
37001;SDS011;22913;51.910;8.374;2022-11-20T10:24:44;10.33;;;8.20;;
37001;SDS011;22913;51.910;8.374;2022-11-20T10:27:41;9.23;;;7.90;;
37001;SDS011;22913;51.910;8.374;2022-11-20T10:30:41;8.70;;;7.90;;
37001;SDS011;22913;51.910;8.374;2022-11-20T10:33:29;9.37;;;8.37;;
37001;SDS011;22913;51.910;8.374;2022-11-20T10:36:19;8.60;;;7.60;;
37001;SDS011;22913;51.910;8.374;2022-11-20T10:39:16;8.30;;;7.50;;
37001;SDS011;22913;51.910;8.374;2022-11-20T10:42:07;8.10;;;7.30;;
37001;SDS011;22913;51.910;8.374;2022-11-20T10:45:09;7.23;;;6.53;;
37001;SDS011;22913;51.910;8.374;2022-11-20T10:48:07;7.77;;;7.00;;
37001;SDS011;22913;51.910;8.374;2022-11-20T10:51:10;6.93;;;6.33;;
37001;SDS011;22913;51.910;8.374;2022-11-20T10:54:02;7.77;;;6.97;;
37001;SDS011;22913;51.910;8.374;2022-11-20T10:56:59;7.40;;;6.70;;
37001;SDS011;22913;51.910;8.374;2022-11-20T11:00:01;7.10;;;6.50;;
37001;SDS011;22913;51.910;8.374;2022-11-20T11:02:49;7.27;;;6.60;;
37001;SDS011;22913;51.910;8.374;2022-11-20T11:05:37;7.53;;;6.87;;
37001;SDS011;22913;51.910;8.374;2022-11-20T11:08:26;8.97;;;7.00;;
37001;SDS011;22913;51.910;8.374;2022-11-20T11:11:19;7.07;;;6.47;;
37001;SDS011;22913;51.910;8.374;2022-11-20T11:14:07;8.57;;;7.77;;
37001;SDS011;22913;51.910;8.374;2022-11-20T11:16:55;7.63;;;6.93;;
37001;SDS011;22913;51.910;8.374;2022-11-20T11:19:42;7.27;;;6.67;;
37001;SDS011;22913;51.910;8.374;2022-11-20T11:22:27;7.03;;;6.47;;
37001;SDS011;22913;51.910;8.374;2022-11-20T11:25:18;7.47;;;6.83;;
37001;SDS011;22913;51.910;8.374;2022-11-20T11:28:19;8.67;;;6.80;;
37001;SDS011;22913;51.910;8.374;2022-11-20T11:31:08;7.50;;;6.90;;
37001;SDS011;22913;51.910;8.374;2022-11-20T11:34:04;7.20;;;6.60;;
37001;SDS011;22913;51.910;8.374;2022-11-20T11:36:52;7.27;;;6.57;;
37001;SDS011;22913;51.910;8.374;2022-11-20T11:39:41;7.03;;;6.43;;
37001;SDS011;22913;51.910;8.374;2022-11-20T11:42:28;8.73;;;7.83;;
37001;SDS011;22913;51.910;8.374;2022-11-20T11:45:14;8.77;;;7.87;;
37001;SDS011;22913;51.910;8.374;2022-11-20T11:48:01;7.97;;;7.17;;
37001;SDS011;22913;51.910;8.374;2022-11-20T11:50:54;8.00;;;7.30;;
37001;SDS011;22913;51.910;8.374;2022-11-20T11:53:39;8.10;;;7.30;;
37001;SDS011;22913;51.910;8.374;2022-11-20T11:56:27;7.93;;;7.23;;
37001;SDS011;22913;51.910;8.374;2022-11-20T11:59:15;8.33;;;7.53;;
37001;SDS011;22913;51.910;8.374;2022-11-20T12:02:20;11.90;;;8.63;;
37001;SDS011;22913;51.910;8.374;2022-11-20T12:05:16;9.20;;;8.27;;
37001;SDS011;22913;51.910;8.374;2022-11-20T12:08:05;9.10;;;8.17;;
37001;SDS011;22913;51.910;8.374;2022-11-20T12:10:57;8.13;;;7.33;;
37001;SDS011;22913;51.910;8.374;2022-11-20T12:13:50;8.67;;;7.77;;
37001;SDS011;22913;51.910;8.374;2022-11-20T12:16:39;8.73;;;7.93;;
37001;SDS011;22913;51.910;8.374;2022-11-20T12:19:25;9.07;;;8.17;;
37001;SDS011;22913;51.910;8.374;2022-11-20T12:22:17;8.57;;;7.77;;
37001;SDS011;22913;51.910;8.374;2022-11-20T12:25:14;8.40;;;7.67;;
37001;SDS011;22913;51.910;8.374;2022-11-20T12:28:17;8.60;;;7.70;;
37001;SDS011;22913;51.910;8.374;2022-11-20T12:31:27;8.97;;;8.13;;
37001;SDS011;22913;51.910;8.374;2022-11-20T12:34:25;9.00;;;8.10;;
37001;SDS011;22913;51.910;8.374;2022-11-20T12:37:27;9.00;;;8.10;;
37001;SDS011;22913;51.910;8.374;2022-11-20T12:40:27;10.30;;;8.70;;
37001;SDS011;22913;51.910;8.374;2022-11-20T12:43:19;9.90;;;8.90;;
37001;SDS011;22913;51.910;8.374;2022-11-20T12:46:25;10.17;;;9.17;;
37001;SDS011;22913;51.910;8.374;2022-11-20T12:49:20;10.50;;;9.50;;
37001;SDS011;22913;51.910;8.374;2022-11-20T12:52:17;10.73;;;9.27;;
37001;SDS011;22913;51.910;8.374;2022-11-20T12:58:24;9.87;;;8.97;;
37001;SDS011;22913;51.910;8.374;2022-11-20T13:01:21;10.27;;;9.27;;
37001;SDS011;22913;51.910;8.374;2022-11-20T13:07:47;9.80;;;8.90;;
37001;SDS011;22913;51.910;8.374;2022-11-20T13:10:38;11.30;;;10.23;;
37001;SDS011;22913;51.910;8.374;2022-11-20T13:13:32;10.07;;;9.17;;
37001;SDS011;22913;51.910;8.374;2022-11-20T13:16:25;12.90;;;9.60;;
37001;SDS011;22913;51.910;8.374;2022-11-20T13:19:17;10.70;;;9.70;;
37001;SDS011;22913;51.910;8.374;2022-11-20T13:22:04;10.33;;;9.43;;
37001;SDS011;22913;51.910;8.374;2022-11-20T13:24:50;10.17;;;9.27;;
37001;SDS011;22913;51.910;8.374;2022-11-20T13:27:46;9.87;;;8.93;;
37001;SDS011;22913;51.910;8.374;2022-11-20T13:30:32;10.83;;;9.83;;
37001;SDS011;22913;51.910;8.374;2022-11-20T13:33:22;11.50;;;10.50;;
37001;SDS011;22913;51.910;8.374;2022-11-20T13:36:20;11.23;;;10.23;;
37001;SDS011;22913;51.910;8.374;2022-11-20T13:39:08;11.50;;;10.40;;
37001;SDS011;22913;51.910;8.374;2022-11-20T13:41:54;11.57;;;10.43;;
37001;SDS011;22913;51.910;8.374;2022-11-20T13:44:44;11.83;;;10.67;;
37001;SDS011;22913;51.910;8.374;2022-11-20T13:47:33;11.67;;;10.43;;
37001;SDS011;22913;51.910;8.374;2022-11-20T13:50:21;13.70;;;11.27;;
37001;SDS011;22913;51.910;8.374;2022-11-20T13:53:26;10.43;;;9.47;;
37001;SDS011;22913;51.910;8.374;2022-11-20T13:56:23;10.80;;;9.80;;
37001;SDS011;22913;51.910;8.374;2022-11-20T13:59:19;12.23;;;10.33;;
37001;SDS011;22913;51.910;8.374;2022-11-20T14:02:20;11.17;;;10.10;;
37001;SDS011;22913;51.910;8.374;2022-11-20T14:05:11;13.33;;;10.77;;
37001;SDS011;22913;51.910;8.374;2022-11-20T14:08:04;12.43;;;11.23;;
37001;SDS011;22913;51.910;8.374;2022-11-20T14:10:51;12.33;;;11.03;;
37001;SDS011;22913;51.910;8.374;2022-11-20T14:13:55;14.47;;;12.37;;
37001;SDS011;22913;51.910;8.374;2022-11-20T14:16:43;12.57;;;11.03;;
37001;SDS011;22913;51.910;8.374;2022-11-20T14:19:30;12.03;;;10.63;;
37001;SDS011;22913;51.910;8.374;2022-11-20T14:22:20;13.63;;;10.40;;
37001;SDS011;22913;51.910;8.374;2022-11-20T14:25:18;12.63;;;11.30;;
37001;SDS011;22913;51.910;8.374;2022-11-20T14:28:10;13.37;;;11.67;;
37001;SDS011;22913;51.910;8.374;2022-11-20T14:31:03;14.13;;;12.13;;
37001;SDS011;22913;51.910;8.374;2022-11-20T14:33:48;14.43;;;12.07;;
37001;SDS011;22913;51.910;8.374;2022-11-20T14:36:35;13.40;;;11.80;;
37001;SDS011;22913;51.910;8.374;2022-11-20T14:39:25;13.70;;;11.87;;
37001;SDS011;22913;51.910;8.374;2022-11-20T14:42:15;12.97;;;10.73;;
37001;SDS011;22913;51.910;8.374;2022-11-20T14:45:02;13.10;;;11.80;;
37001;SDS011;22913;51.910;8.374;2022-11-20T14:47:48;13.67;;;11.50;;
37001;SDS011;22913;51.910;8.374;2022-11-20T14:50:35;13.17;;;11.63;;
37001;SDS011;22913;51.910;8.374;2022-11-20T14:53:23;12.67;;;11.37;;
37001;SDS011;22913;51.910;8.374;2022-11-20T14:56:09;14.40;;;11.30;;
37001;SDS011;22913;51.910;8.374;2022-11-20T14:58:55;14.50;;;12.20;;
37001;SDS011;22913;51.910;8.374;2022-11-20T15:01:41;13.60;;;12.20;;
37001;SDS011;22913;51.910;8.374;2022-11-20T15:04:44;15.53;;;12.53;;
37001;SDS011;22913;51.910;8.374;2022-11-20T15:07:31;14.47;;;12.60;;
37001;SDS011;22913;51.910;8.374;2022-11-20T15:10:21;14.37;;;12.13;;
37001;SDS011;22913;51.910;8.374;2022-11-20T15:13:10;12.67;;;11.03;;
37001;SDS011;22913;51.910;8.374;2022-11-20T15:15:58;16.73;;;12.43;;
37001;SDS011;22913;51.910;8.374;2022-11-20T15:18:44;14.50;;;12.00;;
37001;SDS011;22913;51.910;8.374;2022-11-20T15:21:30;16.13;;;12.63;;
37001;SDS011;22913;51.910;8.374;2022-11-20T15:24:15;12.23;;;10.80;;
37001;SDS011;22913;51.910;8.374;2022-11-20T15:27:02;16.03;;;12.27;;
37001;SDS011;22913;51.910;8.374;2022-11-20T15:29:48;15.37;;;12.10;;
37001;SDS011;22913;51.910;8.374;2022-11-20T15:32:33;14.70;;;11.10;;
37001;SDS011;22913;51.910;8.374;2022-11-20T15:35:19;14.63;;;12.03;;
37001;SDS011;22913;51.910;8.374;2022-11-20T15:38:04;13.03;;;10.93;;
37001;SDS011;22913;51.910;8.374;2022-11-20T15:40:50;14.27;;;10.33;;
37001;SDS011;22913;51.910;8.374;2022-11-20T15:43:37;12.90;;;11.07;;
37001;SDS011;22913;51.910;8.374;2022-11-20T15:46:23;11.97;;;10.50;;
37001;SDS011;22913;51.910;8.374;2022-11-20T15:49:12;12.07;;;10.73;;
37001;SDS011;22913;51.910;8.374;2022-11-20T15:51:58;12.67;;;10.13;;
37001;SDS011;22913;51.910;8.374;2022-11-20T15:54:43;12.77;;;11.00;;
37001;SDS011;22913;51.910;8.374;2022-11-20T15:57:29;11.63;;;10.43;;
37001;SDS011;22913;51.910;8.374;2022-11-20T16:00:16;11.70;;;10.43;;
37001;SDS011;22913;51.910;8.374;2022-11-20T16:03:02;13.93;;;11.00;;
37001;SDS011;22913;51.910;8.374;2022-11-20T16:05:48;12.27;;;10.30;;
37001;SDS011;22913;51.910;8.374;2022-11-20T16:08:33;12.70;;;10.63;;
37001;SDS011;22913;51.910;8.374;2022-11-20T16:11:19;12.90;;;10.80;;
37001;SDS011;22913;51.910;8.374;2022-11-20T16:14:05;12.50;;;10.53;;
37001;SDS011;22913;51.910;8.374;2022-11-20T16:17:10;12.13;;;10.53;;
37001;SDS011;22913;51.910;8.374;2022-11-20T16:19:56;13.50;;;11.00;;
37001;SDS011;22913;51.910;8.374;2022-11-20T16:22:41;15.47;;;12.13;;
37001;SDS011;22913;51.910;8.374;2022-11-20T16:25:27;18.90;;;12.33;;
37001;SDS011;22913;51.910;8.374;2022-11-20T16:28:13;18.13;;;13.07;;
37001;SDS011;22913;51.910;8.374;2022-11-20T16:31:07;15.83;;;12.43;;
37001;SDS011;22913;51.910;8.374;2022-11-20T16:33:55;14.80;;;12.30;;
37001;SDS011;22913;51.910;8.374;2022-11-20T16:36:42;20.17;;;13.40;;
37001;SDS011;22913;51.910;8.374;2022-11-20T16:39:28;16.37;;;13.60;;
37001;SDS011;22913;51.910;8.374;2022-11-20T16:42:14;16.23;;;13.43;;
37001;SDS011;22913;51.910;8.374;2022-11-20T16:44:59;15.60;;;12.43;;
37001;SDS011;22913;51.910;8.374;2022-11-20T16:47:44;15.67;;;12.37;;